Time;durP1;ratioP1;P1;durP2;ratioP2;P2;SDS_P1;SDS_P2;PMS_P1;PMS_P2;Temp;Humidity;BMP_temperature;BMP_pressure;BME280_temperature;BME280_humidity;BME280_pressure;Samples;Min_cycle;Max_cycle;Signal;HPM_P1;HPM_P2
2021/01/08 00:00:22;;;;;;;14.30;10.40;;;1.60;99.90;;;;;;5062134;28;20470;-73
2021/01/08 00:02:49;;;;;;;16.87;11.50;;;1.60;99.90;;;;;;5069883;28;20471;-73
2021/01/08 00:05:17;;;;;;;17.07;10.97;;;1.60;99.90;;;;;;5068463;28;21012;-74
2021/01/08 00:07:43;;;;;;;13.10;9.77;;;1.60;99.90;;;;;;5059885;28;20482;-73
2021/01/08 00:10:10;;;;;;;15.90;10.40;;;1.60;99.90;;;;;;5058106;28;20525;-72
2021/01/08 00:12:38;;;;;;;14.17;10.50;;;1.60;99.90;;;;;;5062943;28;20661;-72
2021/01/08 00:15:05;;;;;;;14.63;9.50;;;1.70;99.90;;;;;;5069634;28;20542;-72
2021/01/08 00:17:32;;;;;;;13.27;10.07;;;1.80;99.90;;;;;;5066585;28;20931;-72
2021/01/08 00:19:59;;;;;;;12.10;10.10;;;1.80;99.90;;;;;;5051914;28;20456;-73
2021/01/08 00:22:26;;;;;;;13.50;9.27;;;1.80;99.90;;;;;;5068926;28;20475;-72
2021/01/08 00:24:53;;;;;;;11.67;9.23;;;1.90;99.90;;;;;;5068228;28;20807;-72
2021/01/08 00:27:20;;;;;;;15.60;9.20;;;1.80;99.90;;;;;;5056900;28;20499;-74
2021/01/08 00:29:47;;;;;;;15.67;11.40;;;1.90;99.90;;;;;;5060982;28;20537;-73
2021/01/08 00:32:13;;;;;;;12.93;9.37;;;1.90;99.90;;;;;;5050298;28;20475;-73
2021/01/08 00:34:40;;;;;;;13.70;11.10;;;1.90;99.90;;;;;;5069307;28;20458;-73
2021/01/08 00:37:06;;;;;;;11.73;10.37;;;2.00;99.90;;;;;;5059818;28;21033;-73
2021/01/08 00:39:36;;;;;;;12.23;10.17;;;1.90;99.90;;;;;;5064733;28;21012;-73
2021/01/08 00:42:03;;;;;;;14.10;10.03;;;1.90;99.90;;;;;;5061644;28;20882;-73
2021/01/08 00:44:29;;;;;;;14.67;10.33;;;2.00;99.90;;;;;;5059904;28;20513;-73
2021/01/08 00:46:56;;;;;;;15.17;9.63;;;1.90;99.90;;;;;;5055229;28;20558;-71
2021/01/08 00:49:24;;;;;;;12.50;9.50;;;1.90;99.90;;;;;;5067691;28;20451;-72
2021/01/08 00:51:50;;;;;;;14.00;8.93;;;1.90;99.90;;;;;;5063265;28;21010;-72
2021/01/08 00:54:17;;;;;;;13.07;7.97;;;2.00;99.90;;;;;;5062198;28;20532;-72
2021/01/08 00:56:46;;;;;;;11.53;8.97;;;2.00;99.90;;;;;;5059304;28;20996;-71
2021/01/08 00:59:12;;;;;;;12.13;8.90;;;2.00;99.90;;;;;;5055012;28;20455;-71
2021/01/08 01:01:39;;;;;;;13.57;9.13;;;2.00;99.90;;;;;;5061671;28;20795;-72
2021/01/08 01:04:05;;;;;;;12.43;8.43;;;2.00;99.90;;;;;;5060656;28;20529;-71
2021/01/08 01:06:34;;;;;;;13.57;9.10;;;2.00;99.90;;;;;;5053865;28;20562;-71
2021/01/08 01:09:01;;;;;;;11.17;8.93;;;2.00;99.90;;;;;;5068027;28;20527;-71
2021/01/08 01:11:28;;;;;;;11.43;8.37;;;2.00;99.90;;;;;;5067002;28;20482;-71
2021/01/08 01:13:57;;;;;;;13.47;9.13;;;2.00;99.90;;;;;;5055239;28;20735;-72
2021/01/08 01:16:24;;;;;;;13.67;7.90;;;2.10;99.90;;;;;;5063702;28;20629;-72
2021/01/08 01:18:53;;;;;;;10.10;8.13;;;2.10;99.90;;;;;;5055226;28;20535;-72
2021/01/08 01:21:20;;;;;;;12.13;9.30;;;2.10;99.90;;;;;;5061590;28;20546;-71
2021/01/08 01:23:46;;;;;;;10.47;8.20;;;2.10;99.90;;;;;;5066455;28;21282;-73
2021/01/08 01:26:13;;;;;;;12.13;8.93;;;2.00;99.90;;;;;;5050327;28;20448;-73
2021/01/08 01:28:40;;;;;;;9.53;7.13;;;2.00;99.90;;;;;;5061073;28;20431;-73
2021/01/08 01:31:08;;;;;;;10.70;8.33;;;2.00;99.90;;;;;;5055408;28;20462;-72
2021/01/08 01:33:34;;;;;;;9.83;7.73;;;1.90;99.90;;;;;;5066966;28;20935;-73
2021/01/08 01:36:06;;;;;;;11.23;7.80;;;1.80;99.90;;;;;;5058982;28;20538;-72
2021/01/08 01:38:33;;;;;;;14.33;8.83;;;1.60;99.90;;;;;;5055199;28;20451;-71
2021/01/08 01:40:59;;;;;;;11.50;7.13;;;1.50;99.90;;;;;;5060016;28;20530;-71
2021/01/08 01:43:26;;;;;;;11.60;8.00;;;1.50;99.90;;;;;;5066586;28;20504;-72
2021/01/08 01:45:52;;;;;;;10.93;7.07;;;1.50;99.90;;;;;;5059419;28;20531;-73
2021/01/08 01:48:20;;;;;;;10.17;7.67;;;1.40;99.90;;;;;;5066821;28;20586;-71
2021/01/08 01:50:47;;;;;;;12.50;8.30;;;1.40;99.90;;;;;;5052744;28;20459;-71
2021/01/08 01:53:13;;;;;;;10.97;7.20;;;1.40;99.90;;;;;;5055770;28;20495;-72
2021/01/08 01:55:40;;;;;;;10.87;8.70;;;1.40;99.90;;;;;;5064860;28;20538;-73
2021/01/08 01:58:07;;;;;;;15.43;8.20;;;1.50;99.90;;;;;;5068137;28;20463;-72
2021/01/08 02:00:33;;;;;;;9.50;7.57;;;1.50;99.90;;;;;;5068034;28;20443;-73
2021/01/08 02:03:06;;;;;;;11.23;7.77;;;1.40;99.90;;;;;;5068821;28;20542;-72
2021/01/08 02:05:35;;;;;;;13.50;7.50;;;1.40;99.90;;;;;;5068675;28;20473;-72
2021/01/08 02:08:04;;;;;;;8.90;7.23;;;1.20;99.90;;;;;;5067579;28;20463;-73
2021/01/08 02:10:38;;;;;;;9.47;6.43;;;1.20;99.90;;;;;;5070120;28;20446;-72
2021/01/08 02:13:05;;;;;;;9.90;7.80;;;1.20;99.90;;;;;;5072224;28;20557;-70
2021/01/08 02:15:32;;;;;;;10.87;7.50;;;1.20;99.90;;;;;;5072379;28;20451;-72
2021/01/08 02:18:01;;;;;;;10.40;7.40;;;1.30;99.90;;;;;;5071472;28;20495;-71
2021/01/08 02:20:28;;;;;;;9.33;7.60;;;1.40;99.90;;;;;;5072194;28;20827;-72
2021/01/08 02:23:01;;;;;;;11.80;7.60;;;1.40;99.90;;;;;;5072031;28;20473;-72
2021/01/08 02:25:31;;;;;;;11.07;6.93;;;1.40;99.90;;;;;;5072117;28;20464;-71
2021/01/08 02:28:20;;;;;;;14.23;9.40;;;1.40;99.90;;;;;;5071754;28;20509;-72
2021/01/08 02:30:47;;;;;;;11.10;8.37;;;1.50;99.90;;;;;;5071972;28;20443;-72
2021/01/08 02:33:14;;;;;;;12.53;8.60;;;1.60;99.90;;;;;;5071413;28;20569;-72
2021/01/08 02:35:42;;;;;;;11.50;8.03;;;1.60;99.90;;;;;;5071234;28;20453;-72
2021/01/08 02:38:08;;;;;;;11.70;9.23;;;1.60;99.90;;;;;;5071570;28;20471;-72
2021/01/08 02:40:36;;;;;;;10.73;7.67;;;1.60;99.90;;;;;;5071726;28;21048;-73
2021/01/08 02:43:05;;;;;;;9.40;6.80;;;1.60;99.90;;;;;;5071444;28;20496;-73
2021/01/08 02:45:31;;;;;;;10.30;8.20;;;1.60;99.90;;;;;;5071856;28;20562;-73
2021/01/08 02:47:58;;;;;;;14.37;9.97;;;1.60;99.90;;;;;;5070291;28;20520;-71
2021/01/08 02:50:25;;;;;;;10.90;8.10;;;1.60;99.90;;;;;;5071544;28;20541;-73
2021/01/08 02:52:56;;;;;;;13.70;9.67;;;1.60;99.90;;;;;;5071702;28;21022;-72
2021/01/08 02:55:29;;;;;;;13.90;8.67;;;1.60;99.90;;;;;;5071705;28;20489;-73
2021/01/08 02:57:58;;;;;;;15.67;9.57;;;1.70;99.90;;;;;;5071009;28;20482;-73
2021/01/08 03:00:26;;;;;;;13.03;8.70;;;1.70;99.90;;;;;;5071877;28;20819;-73
2021/01/08 03:02:53;;;;;;;11.30;7.90;;;1.70;99.90;;;;;;5071450;28;20526;-72
2021/01/08 03:05:20;;;;;;;10.67;7.80;;;1.80;99.90;;;;;;5071146;28;20955;-73
2021/01/08 03:07:47;;;;;;;14.23;9.57;;;1.80;99.90;;;;;;5070536;28;20479;-73
2021/01/08 03:10:14;;;;;;;13.03;8.00;;;1.80;99.90;;;;;;5071455;28;20808;-73
2021/01/08 03:12:41;;;;;;;11.47;7.57;;;1.80;99.90;;;;;;5071281;28;20565;-72
2021/01/08 03:15:12;;;;;;;12.10;7.50;;;1.80;99.90;;;;;;5071032;28;20880;-72
2021/01/08 03:17:38;;;;;;;10.77;6.60;;;1.80;99.90;;;;;;5070261;28;21281;-71
2021/01/08 03:20:06;;;;;;;9.13;7.27;;;1.80;99.90;;;;;;5071157;28;20860;-72
2021/01/08 03:22:32;;;;;;;10.50;7.77;;;1.80;99.90;;;;;;5070042;28;20522;-71
2021/01/08 03:24:59;;;;;;;10.53;7.20;;;1.80;99.90;;;;;;5071077;28;20877;-72
2021/01/08 03:27:25;;;;;;;10.20;7.10;;;1.80;99.90;;;;;;5070633;28;20493;-72
2021/01/08 03:29:51;;;;;;;10.17;6.77;;;1.70;99.90;;;;;;5070968;28;20535;-72
2021/01/08 03:32:19;;;;;;;10.83;7.20;;;1.70;99.90;;;;;;5070616;28;20487;-72
2021/01/08 03:34:45;;;;;;;10.53;7.70;;;1.80;99.90;;;;;;5071026;28;20577;-72
2021/01/08 03:37:11;;;;;;;9.67;6.07;;;1.80;99.90;;;;;;5070065;28;20467;-72
2021/01/08 03:39:38;;;;;;;9.80;6.43;;;1.80;99.90;;;;;;5070836;28;20878;-72
2021/01/08 03:42:04;;;;;;;7.17;5.87;;;1.80;99.90;;;;;;5070119;28;20889;-73
2021/01/08 03:44:31;;;;;;;7.43;5.57;;;1.80;99.90;;;;;;5069331;28;20524;-73
2021/01/08 03:46:57;;;;;;;7.50;6.00;;;1.70;99.90;;;;;;5069619;28;20471;-73
2021/01/08 03:49:24;;;;;;;8.50;5.40;;;1.70;99.90;;;;;;5070573;28;20485;-71
2021/01/08 03:51:51;;;;;;;9.50;6.43;;;1.70;99.90;;;;;;5070234;28;21063;-73
2021/01/08 03:54:17;;;;;;;6.77;5.17;;;1.70;99.90;;;;;;5070634;28;20549;-72
2021/01/08 03:56:43;;;;;;;8.03;6.13;;;1.70;99.90;;;;;;5069611;28;20481;-70
2021/01/08 03:59:10;;;;;;;10.23;6.83;;;1.70;99.90;;;;;;5070144;28;20539;-72
2021/01/08 04:01:36;;;;;;;9.63;7.03;;;1.60;99.90;;;;;;5070423;28;21089;-71
2021/01/08 04:04:03;;;;;;;7.97;5.97;;;1.60;99.90;;;;;;5070261;28;20507;-72
2021/01/08 04:06:30;;;;;;;8.53;6.10;;;1.60;99.90;;;;;;5069371;28;20554;-71
2021/01/08 04:08:57;;;;;;;8.27;5.20;;;1.60;99.90;;;;;;5069912;28;20570;-73
2021/01/08 04:11:23;;;;;;;11.00;6.30;;;1.60;99.90;;;;;;5069820;28;20950;-73
2021/01/08 04:13:50;;;;;;;11.00;6.00;;;1.60;99.90;;;;;;5070240;28;20487;-71
2021/01/08 04:16:16;;;;;;;10.00;7.33;;;1.40;99.90;;;;;;5068979;28;20471;-71
2021/01/08 04:18:43;;;;;;;11.20;6.67;;;1.40;99.90;;;;;;5070259;28;20892;-71
2021/01/08 04:21:09;;;;;;;7.90;6.27;;;1.40;99.90;;;;;;5069981;28;20587;-72
2021/01/08 04:23:38;;;;;;;8.87;6.13;;;1.30;99.90;;;;;;5069780;28;20470;-72
2021/01/08 04:26:06;;;;;;;9.87;7.17;;;1.30;99.90;;;;;;5069006;28;20504;-73
2021/01/08 04:28:33;;;;;;;7.80;6.50;;;1.30;99.90;;;;;;5069339;28;20443;-72
2021/01/08 04:30:59;;;;;;;9.73;6.37;;;1.40;99.90;;;;;;5069684;28;20454;-72
2021/01/08 04:33:25;;;;;;;7.60;5.87;;;1.40;99.90;;;;;;5069466;28;20479;-72
2021/01/08 04:35:53;;;;;;;9.37;6.17;;;1.50;99.90;;;;;;5068896;28;20535;-73
2021/01/08 04:38:19;;;;;;;10.40;6.40;;;1.50;99.90;;;;;;5069278;28;20463;-72
2021/01/08 04:40:46;;;;;;;9.97;7.03;;;1.60;99.90;;;;;;5069727;28;20528;-73
2021/01/08 04:43:13;;;;;;;10.13;6.20;;;1.60;99.90;;;;;;5069112;28;20951;-72
2021/01/08 04:45:39;;;;;;;7.70;5.93;;;1.60;99.90;;;;;;5068865;28;20514;-73
2021/01/08 04:48:06;;;;;;;7.53;5.63;;;1.60;99.90;;;;;;5069175;28;20459;-73
2021/01/08 04:50:33;;;;;;;10.57;5.20;;;1.70;99.90;;;;;;5069311;28;20530;-71
2021/01/08 04:53:00;;;;;;;6.43;5.17;;;1.60;99.90;;;;;;5070234;28;20577;-72
2021/01/08 04:55:28;;;;;;;9.27;5.57;;;1.60;99.90;;;;;;5069371;28;20554;-72
2021/01/08 04:57:58;;;;;;;9.70;6.50;;;1.60;99.90;;;;;;5068693;28;20962;-71
2021/01/08 05:00:25;;;;;;;8.43;5.80;;;1.60;99.90;;;;;;5069733;28;20428;-72
2021/01/08 05:02:52;;;;;;;9.30;7.07;;;1.60;99.90;;;;;;5068816;28;20443;-72
2021/01/08 05:05:21;;;;;;;10.23;6.17;;;1.60;99.90;;;;;;5068994;28;20540;-72
2021/01/08 05:07:48;;;;;;;8.27;6.17;;;1.60;99.90;;;;;;5068658;28;20570;-72
2021/01/08 05:10:14;;;;;;;10.50;5.82;;;1.60;99.90;;;;;;5069109;28;20546;-71
2021/01/08 05:12:41;;;;;;;8.03;5.90;;;1.60;99.90;;;;;;5069208;28;20221;-72
2021/01/08 05:15:17;;;;;;;6.47;4.80;;;1.70;99.90;;;;;;5069120;28;20542;-72
2021/01/08 05:17:44;;;;;;;6.97;5.60;;;1.70;99.90;;;;;;5068451;28;20497;-72
2021/01/08 05:20:12;;;;;;;8.70;5.93;;;1.70;99.90;;;;;;5069021;28;20469;-72
2021/01/08 05:22:39;;;;;;;6.90;4.80;;;1.80;99.90;;;;;;5068766;28;20526;-72
2021/01/08 05:25:07;;;;;;;8.67;5.40;;;1.80;99.90;;;;;;5069081;28;20459;-72
2021/01/08 05:27:34;;;;;;;7.73;5.90;;;1.80;99.90;;;;;;5067974;28;20664;-72
2021/01/08 05:30:17;;;;;;;10.63;5.70;;;1.90;99.90;;;;;;5068976;28;20443;-72
2021/01/08 05:32:44;;;;;;;9.30;5.63;;;1.90;99.90;;;;;;5068559;28;20511;-72
2021/01/08 05:35:17;;;;;;;7.40;5.10;;;1.90;99.90;;;;;;5068526;28;20451;-72
2021/01/08 05:37:47;;;;;;;8.27;6.00;;;1.90;99.90;;;;;;5068059;28;20506;-72
2021/01/08 05:40:13;;;;;;;9.80;6.20;;;1.90;99.90;;;;;;5068400;28;20550;-73
2021/01/08 05:42:58;;;;;;;7.00;5.07;;;1.80;99.90;;;;;;5068514;28;20519;-72
2021/01/08 05:45:26;;;;;;;8.90;6.10;;;1.80;99.90;;;;;;5070040;28;20534;-72
2021/01/08 05:47:55;;;;;;;9.47;6.20;;;1.80;99.90;;;;;;5072075;28;20503;-72
2021/01/08 05:50:23;;;;;;;7.33;5.10;;;1.80;99.90;;;;;;5072546;28;20522;-72
2021/01/08 05:52:56;;;;;;;6.43;5.10;;;1.80;99.90;;;;;;5072497;28;20652;-72
2021/01/08 05:55:26;;;;;;;7.27;5.50;;;1.80;99.90;;;;;;5072685;28;20529;-72
2021/01/08 05:57:53;;;;;;;7.33;5.60;;;1.90;99.90;;;;;;5071629;28;21149;-72
2021/01/08 06:00:20;;;;;;;9.03;6.00;;;1.90;99.90;;;;;;5072112;28;20548;-72
2021/01/08 06:02:51;;;;;;;7.40;5.30;;;1.90;99.90;;;;;;5072358;28;20461;-72
2021/01/08 06:05:19;;;;;;;8.27;5.00;;;1.80;99.90;;;;;;5072393;28;20566;-72
2021/01/08 06:07:50;;;;;;;7.50;5.40;;;1.80;99.90;;;;;;5071449;28;20702;-72
2021/01/08 06:10:21;;;;;;;10.57;6.30;;;1.80;99.90;;;;;;5072028;28;20446;-72
2021/01/08 06:12:49;;;;;;;7.83;5.33;;;1.80;99.90;;;;;;5072040;28;20509;-72
2021/01/08 06:15:16;;;;;;;9.70;6.10;;;1.80;99.90;;;;;;5071893;28;20488;-72
2021/01/08 06:17:47;;;;;;;7.23;5.10;;;1.80;99.90;;;;;;5071129;28;20470;-72
2021/01/08 06:20:15;;;;;;;7.50;5.20;;;1.90;99.90;;;;;;5071624;28;20530;-72
2021/01/08 06:22:42;;;;;;;6.90;6.03;;;1.90;99.90;;;;;;5071862;28;20524;-72
2021/01/08 06:25:10;;;;;;;8.43;5.70;;;1.90;99.90;;;;;;5072100;28;20954;-73
2021/01/08 06:27:37;;;;;;;8.88;5.60;;;1.90;99.90;;;;;;5071064;28;20898;-73
2021/01/08 06:30:07;;;;;;;9.23;6.60;;;1.90;99.90;;;;;;5071950;28;20717;-72
2021/01/08 06:32:34;;;;;;;6.97;5.47;;;1.90;99.90;;;;;;5071750;28;20474;-72
2021/01/08 06:35:06;;;;;;;7.77;5.40;;;1.90;99.90;;;;;;5071724;28;20447;-72
2021/01/08 06:37:39;;;;;;;9.10;6.70;;;1.90;99.90;;;;;;5070658;28;20470;-72
2021/01/08 06:40:08;;;;;;;8.57;6.10;;;2.00;99.90;;;;;;5071777;28;20439;-72
2021/01/08 06:42:44;;;;;;;8.00;5.70;;;2.00;99.90;;;;;;5071538;28;20499;-72
2021/01/08 06:45:14;;;;;;;8.07;5.47;;;2.00;99.90;;;;;;5071728;28;20439;-72
2021/01/08 06:47:45;;;;;;;7.33;5.33;;;2.10;99.90;;;;;;5070950;28;20466;-72
2021/01/08 06:50:19;;;;;;;8.90;6.30;;;2.00;99.90;;;;;;5072246;28;20447;-72
2021/01/08 06:52:47;;;;;;;7.80;5.50;;;2.10;99.90;;;;;;5071269;28;20573;-71
2021/01/08 06:55:15;;;;;;;7.03;5.70;;;2.10;99.90;;;;;;5071517;28;20453;-72
2021/01/08 06:57:55;;;;;;;6.50;4.83;;;2.10;99.90;;;;;;5069540;28;20509;-72
2021/01/08 07:00:26;;;;;;;7.90;5.30;;;2.10;99.90;;;;;;5071600;28;20446;-72
2021/01/08 07:02:57;;;;;;;8.03;5.20;;;2.00;99.90;;;;;;5071104;28;20439;-73
2021/01/08 07:05:24;;;;;;;7.97;4.83;;;2.10;99.90;;;;;;5071330;28;20530;-74
2021/01/08 07:07:55;;;;;;;6.73;5.07;;;2.10;99.90;;;;;;5070443;28;20469;-71
2021/01/08 07:10:21;;;;;;;7.97;5.53;;;2.10;99.90;;;;;;5071308;28;20442;-74
2021/01/08 07:12:53;;;;;;;6.87;5.30;;;2.10;99.90;;;;;;5070876;28;20514;-73
2021/01/08 07:15:20;;;;;;;9.47;5.40;;;2.10;99.90;;;;;;5070909;28;20465;-72
2021/01/08 07:17:52;;;;;;;7.30;4.70;;;2.10;99.90;;;;;;5070782;28;20467;-72
2021/01/08 07:20:20;;;;;;;7.60;4.90;;;2.10;99.90;;;;;;5071199;28;20947;-72
2021/01/08 07:22:52;;;;;;;10.33;4.97;;;2.10;99.90;;;;;;5071086;28;20959;-72
2021/01/08 07:25:24;;;;;;;7.83;5.10;;;2.10;99.90;;;;;;5070667;28;20485;-72
2021/01/08 07:27:52;;;;;;;9.67;5.40;;;2.00;99.90;;;;;;5070166;28;20520;-72
2021/01/08 07:30:20;;;;;;;7.50;5.80;;;2.00;99.90;;;;;;5071452;28;20814;-72
2021/01/08 07:32:47;;;;;;;7.60;4.70;;;2.10;99.90;;;;;;5072562;28;20485;-73
2021/01/08 07:35:22;;;;;;;8.70;4.77;;;2.10;99.90;;;;;;5071413;28;20500;-72
2021/01/08 07:38:00;;;;;;;6.43;4.50;;;2.10;99.90;;;;;;5070971;28;20890;-72
2021/01/08 07:40:28;;;;;;;7.53;5.20;;;2.10;99.90;;;;;;5070264;28;20454;-72
2021/01/08 07:42:59;;;;;;;6.87;4.40;;;2.10;99.90;;;;;;5070423;28;20969;-72
2021/01/08 07:45:50;;;;;;;6.90;4.57;;;2.20;99.90;;;;;;5070341;28;20461;-72
2021/01/08 07:48:22;;;;;;;8.50;5.23;;;2.20;99.90;;;;;;5070261;28;20530;-73
2021/01/08 07:50:57;;;;;;;8.10;5.00;;;2.20;99.90;;;;;;5070365;28;20455;-72
2021/01/08 07:53:50;;;;;;;6.53;4.50;;;2.30;99.90;;;;;;5069930;28;20478;-73
2021/01/08 07:56:18;;;;;;;7.37;5.20;;;2.30;99.90;;;;;;5069185;28;20455;-72
2021/01/08 07:58:46;;;;;;;6.60;4.90;;;2.30;99.90;;;;;;5070037;28;20534;-72
2021/01/08 08:01:15;;;;;;;6.97;4.97;;;2.30;99.90;;;;;;5070063;28;20537;-73
2021/01/08 08:03:42;;;;;;;7.10;5.40;;;2.20;99.90;;;;;;5070197;28;20447;-72
2021/01/08 08:06:09;;;;;;;7.40;5.00;;;2.30;99.90;;;;;;5069425;28;20474;-73
2021/01/08 08:08:41;;;;;;;7.20;5.20;;;2.30;99.90;;;;;;5069088;28;20447;-73
2021/01/08 08:11:13;;;;;;;6.80;4.63;;;2.30;99.90;;;;;;5069686;28;20451;-72
2021/01/08 08:13:40;;;;;;;6.07;4.77;;;2.40;99.90;;;;;;5070028;28;20540;-73
2021/01/08 08:16:07;;;;;;;5.50;4.47;;;2.40;99.90;;;;;;5068999;28;20553;-73
2021/01/08 08:18:33;;;;;;;5.90;5.00;;;2.40;99.90;;;;;;5070142;28;20447;-73
2021/01/08 08:21:07;;;;;;;7.07;4.80;;;2.50;99.90;;;;;;5069622;28;20442;-72
2021/01/08 08:23:34;;;;;;;8.03;5.50;;;2.50;99.90;;;;;;5068771;28;20439;-72
2021/01/08 08:26:00;;;;;;;7.10;4.60;;;2.60;99.90;;;;;;5069072;28;20442;-73
2021/01/08 08:28:27;;;;;;;6.43;4.77;;;2.70;99.90;;;;;;5069458;28;20542;-73
2021/01/08 08:30:54;;;;;;;6.43;4.80;;;2.70;99.90;;;;;;5069823;28;20461;-74
2021/01/08 08:33:22;;;;;;;8.07;6.30;;;2.70;99.90;;;;;;5069157;28;20482;-72
2021/01/08 08:35:49;;;;;;;6.63;4.33;;;2.70;99.90;;;;;;5068278;28;20832;-73
2021/01/08 08:38:15;;;;;;;11.53;5.80;;;2.80;99.90;;;;;;5068500;28;20847;-72
2021/01/08 08:40:42;;;;;;;4.70;3.93;;;2.70;99.90;;;;;;5068903;28;20479;-73
2021/01/08 08:43:08;;;;;;;6.10;3.67;;;2.80;99.90;;;;;;5067715;28;20530;-74
2021/01/08 08:45:36;;;;;;;5.90;4.10;;;2.80;99.90;;;;;;5068640;28;20506;-71
2021/01/08 08:48:07;;;;;;;5.70;3.53;;;2.70;99.90;;;;;;5068006;28;20475;-72
2021/01/08 08:50:34;;;;;;;4.73;3.60;;;2.70;99.90;;;;;;5068425;28;20440;-72
2021/01/08 08:53:10;;;;;;;4.80;3.30;;;2.60;99.90;;;;;;5068263;28;20478;-72
2021/01/08 08:55:36;;;;;;;4.70;2.83;;;2.50;99.90;;;;;;5068379;28;20522;-72
2021/01/08 08:58:04;;;;;;;4.27;3.23;;;2.40;99.90;;;;;;5067651;28;20567;-72
2021/01/08 09:00:32;;;;;;;5.03;3.63;;;2.40;99.90;;;;;;5068376;28;20534;-75
2021/01/08 09:02:59;;;;;;;5.53;4.10;;;2.40;99.90;;;;;;5068278;28;20538;-73
2021/01/08 09:05:33;;;;;;;5.63;3.20;;;2.40;99.90;;;;;;5068128;28;20537;-72
2021/01/08 09:08:09;;;;;;;6.00;4.47;;;2.40;99.90;;;;;;5067707;28;20467;-70
2021/01/08 09:10:38;;;;;;;5.47;3.33;;;2.50;99.90;;;;;;5068616;28;20454;-73
2021/01/08 09:13:11;;;;;;;4.53;3.50;;;2.60;99.90;;;;;;5068147;28;20581;-70
2021/01/08 09:15:54;;;;;;;5.70;3.10;;;2.60;99.90;;;;;;5068226;28;20451;-73
2021/01/08 09:18:31;;;;;;;4.17;3.03;;;2.60;99.90;;;;;;5068155;28;20463;-72
2021/01/08 09:21:02;;;;;;;4.10;3.50;;;2.70;99.90;;;;;;5067515;28;20451;-70
2021/01/08 09:23:34;;;;;;;6.43;4.30;;;2.60;99.90;;;;;;5068234;28;20447;-75
2021/01/08 09:26:05;;;;;;;5.53;3.20;;;2.60;99.90;;;;;;5067299;28;20474;-72
2021/01/08 09:28:40;;;;;;;5.67;3.77;;;2.70;99.90;;;;;;5067513;28;20521;-71
2021/01/08 09:31:07;;;;;;;6.50;3.90;;;2.70;99.90;;;;;;5067489;28;20454;-72
2021/01/08 09:33:34;;;;;;;4.83;3.30;;;2.60;99.90;;;;;;5067179;28;20577;-70
2021/01/08 09:36:01;;;;;;;7.40;3.20;;;2.60;99.90;;;;;;5067185;28;20519;-72
2021/01/08 09:38:30;;;;;;;4.50;3.43;;;2.60;99.90;;;;;;5058166;28;20530;-72
2021/01/08 09:40:57;;;;;;;4.63;3.57;;;2.60;99.90;;;;;;5056382;28;20454;-75
2021/01/08 09:43:24;;;;;;;3.73;3.33;;;2.60;99.90;;;;;;5053725;28;20523;-72
2021/01/08 09:46:07;;;;;;;5.03;3.50;;;2.70;99.90;;;;;;5054280;28;20466;-70
2021/01/08 09:48:39;;;;;;;5.20;3.27;;;2.70;99.90;;;;;;5051414;28;20816;-70
2021/01/08 09:51:06;;;;;;;5.67;3.63;;;2.70;99.90;;;;;;5055224;28;20542;-70
2021/01/08 09:53:34;;;;;;;4.30;3.13;;;2.70;99.90;;;;;;5053562;28;21028;-68
2021/01/08 09:56:14;;;;;;;4.87;3.40;;;2.70;99.90;;;;;;5050612;28;20648;-69
2021/01/08 09:58:42;;;;;;;4.33;3.57;;;2.70;99.90;;;;;;5051926;28;20440;-68
2021/01/08 10:01:12;;;;;;;5.10;3.70;;;2.70;99.90;;;;;;5050627;28;20451;-70
2021/01/08 10:03:40;;;;;;;4.60;3.60;;;2.80;99.90;;;;;;5045120;28;20432;-69
2021/01/08 10:06:10;;;;;;;4.80;3.87;;;2.80;99.90;;;;;;5044770;28;20470;-70
2021/01/08 10:08:37;;;;;;;5.50;4.07;;;2.80;99.90;;;;;;5045362;28;20451;-69
2021/01/08 10:11:04;;;;;;;5.00;3.53;;;2.90;99.90;;;;;;5045177;28;20453;-71
2021/01/08 10:13:32;;;;;;;4.80;3.60;;;2.80;99.90;;;;;;5056257;28;20502;-67
2021/01/08 10:16:05;;;;;;;4.73;3.73;;;2.80;99.90;;;;;;5055880;28;20450;-67
2021/01/08 10:18:34;;;;;;;6.83;3.57;;;2.80;99.90;;;;;;5064863;28;21202;-70
2021/01/08 10:21:05;;;;;;;4.93;3.90;;;2.90;99.90;;;;;;5064620;28;20534;-68
2021/01/08 10:23:38;;;;;;;5.60;4.00;;;2.90;99.90;;;;;;5064463;28;20546;-70
2021/01/08 10:26:11;;;;;;;5.30;4.07;;;2.90;99.90;;;;;;5063575;28;20449;-70
2021/01/08 10:28:50;;;;;;;5.20;3.50;;;2.80;99.90;;;;;;5064636;28;20475;-74
2021/01/08 10:31:18;;;;;;;6.47;4.40;;;2.70;99.90;;;;;;5066008;28;20948;-75
2021/01/08 10:33:44;;;;;;;5.97;4.20;;;2.60;99.90;;;;;;5068369;28;20483;-72
2021/01/08 10:36:13;;;;;;;5.67;3.90;;;2.50;99.90;;;;;;5067613;28;20454;-71
2021/01/08 10:38:39;;;;;;;6.17;4.80;;;2.40;99.90;;;;;;5068296;28;20435;-72
2021/01/08 10:41:06;;;;;;;7.70;5.03;;;2.30;99.90;;;;;;5069058;28;20471;-72
2021/01/08 10:43:34;;;;;;;5.60;4.20;;;2.30;99.90;;;;;;5063448;28;20556;-73
2021/01/08 10:46:00;;;;;;;6.73;5.10;;;2.30;99.90;;;;;;5058282;28;20451;-73
2021/01/08 10:48:27;;;;;;;7.33;4.93;;;2.40;99.90;;;;;;5067827;28;20542;-73
2021/01/08 10:50:53;;;;;;;7.40;4.30;;;2.50;99.90;;;;;;5067913;28;20977;-72
2021/01/08 10:53:20;;;;;;;6.37;4.70;;;2.60;99.90;;;;;;5067714;28;20501;-72
2021/01/08 10:55:47;;;;;;;6.70;4.67;;;2.70;99.90;;;;;;5066028;28;20534;-71
2021/01/08 10:58:15;;;;;;;6.33;5.43;;;2.80;99.90;;;;;;5067645;28;20470;-73
2021/01/08 11:00:42;;;;;;;7.20;5.47;;;2.80;99.90;;;;;;5067538;28;20447;-70
2021/01/08 11:03:09;;;;;;;6.90;5.40;;;2.80;99.90;;;;;;5067638;28;20478;-70
2021/01/08 11:05:38;;;;;;;6.47;4.60;;;2.90;99.90;;;;;;5067717;28;20447;-72
2021/01/08 11:08:05;;;;;;;6.30;5.10;;;2.90;99.90;;;;;;5067275;28;20475;-70
2021/01/08 11:10:33;;;;;;;6.80;5.37;;;2.90;99.90;;;;;;5067852;28;20455;-71
2021/01/08 11:13:00;;;;;;;9.20;5.37;;;2.80;99.90;;;;;;5067474;28;20479;-73
2021/01/08 11:15:26;;;;;;;8.03;5.27;;;2.80;99.90;;;;;;5067299;28;20443;-73
2021/01/08 11:17:53;;;;;;;9.20;6.20;;;2.80;99.90;;;;;;5063567;28;20464;-73
2021/01/08 11:20:19;;;;;;;8.80;6.60;;;2.90;99.90;;;;;;5055809;28;21058;-71
2021/01/08 11:22:46;;;;;;;9.70;6.77;;;2.90;99.90;;;;;;5055384;28;20468;-71
2021/01/08 11:25:14;;;;;;;6.40;5.30;;;2.90;99.90;;;;;;5055856;28;20440;-72
2021/01/08 11:27:41;;;;;;;8.87;6.70;;;2.80;99.90;;;;;;5065474;28;20542;-71
2021/01/08 11:30:09;;;;;;;8.70;5.93;;;2.80;99.90;;;;;;5066067;28;20932;-75
2021/01/08 11:32:36;;;;;;;7.50;5.70;;;2.70;99.90;;;;;;5060676;28;20567;-70
2021/01/08 11:35:03;;;;;;;8.33;6.07;;;2.70;99.90;;;;;;5058066;28;20478;-70
2021/01/08 11:37:31;;;;;;;10.23;6.90;;;2.70;99.90;;;;;;5058582;28;20464;-70
2021/01/08 11:39:57;;;;;;;10.07;6.10;;;2.70;99.90;;;;;;5057438;28;20463;-70
2021/01/08 11:42:24;;;;;;;8.33;6.07;;;2.60;99.90;;;;;;5058818;28;20860;-70
2021/01/08 11:44:51;;;;;;;6.80;5.47;;;2.60;99.90;;;;;;5055840;28;20448;-70
2021/01/08 11:47:17;;;;;;;10.50;5.50;;;2.60;99.90;;;;;;5048958;28;20925;-72
2021/01/08 11:49:45;;;;;;;8.73;6.30;;;2.50;99.90;;;;;;5056266;28;20452;-71
2021/01/08 11:52:11;;;;;;;9.30;5.97;;;2.50;99.90;;;;;;5059160;28;20432;-71
2021/01/08 11:54:38;;;;;;;10.23;6.85;;;2.50;99.90;;;;;;5048653;28;20451;-72
2021/01/08 11:57:05;;;;;;;7.30;5.60;;;2.50;99.90;;;;;;5049516;28;20244;-71
2021/01/08 11:59:31;;;;;;;8.97;5.70;;;2.50;99.90;;;;;;5066727;28;21116;-73
2021/01/08 12:02:03;;;;;;;7.50;5.33;;;2.50;99.90;;;;;;5067025;28;20464;-74
2021/01/08 12:04:30;;;;;;;8.20;5.33;;;2.60;99.90;;;;;;5066794;28;20552;-74
2021/01/08 12:06:59;;;;;;;7.90;5.20;;;2.50;99.90;;;;;;5065682;28;20459;-73
2021/01/08 12:09:25;;;;;;;6.47;4.87;;;2.50;99.90;;;;;;5067145;28;20524;-72
2021/01/08 12:11:56;;;;;;;7.93;5.93;;;2.50;99.90;;;;;;5067266;28;20538;-72
2021/01/08 12:14:23;;;;;;;9.73;4.40;;;2.50;99.90;;;;;;5066876;28;20911;-72
2021/01/08 12:16:49;;;;;;;7.57;5.53;;;2.50;99.90;;;;;;5065837;28;20463;-73
2021/01/08 12:19:17;;;;;;;6.60;5.17;;;2.60;99.90;;;;;;5067092;28;20451;-72
2021/01/08 12:21:45;;;;;;;6.70;5.07;;;2.60;99.90;;;;;;5067455;28;20512;-72
2021/01/08 12:24:11;;;;;;;6.73;4.60;;;2.70;99.90;;;;;;5066821;28;20467;-71
2021/01/08 12:26:38;;;;;;;6.33;4.60;;;2.70;99.90;;;;;;5067480;28;20554;-72
2021/01/08 12:29:04;;;;;;;9.20;5.43;;;2.70;99.90;;;;;;5069789;28;20926;-72
2021/01/08 12:31:31;;;;;;;8.40;5.40;;;2.80;99.90;;;;;;5061143;28;20443;-73
2021/01/08 12:33:57;;;;;;;10.30;6.50;;;2.90;99.90;;;;;;5058924;28;21212;-72
2021/01/08 12:36:25;;;;;;;6.27;4.80;;;2.80;99.90;;;;;;5063811;28;20471;-72
2021/01/08 12:38:51;;;;;;;5.60;4.20;;;2.70;99.90;;;;;;5057200;28;20948;-72
2021/01/08 12:41:18;;;;;;;6.60;4.70;;;2.70;99.90;;;;;;5058941;28;20449;-72
2021/01/08 12:43:46;;;;;;;6.47;4.10;;;2.60;99.90;;;;;;5057144;28;20535;-73
2021/01/08 12:46:13;;;;;;;6.80;4.70;;;2.70;99.90;;;;;;5056453;28;20535;-74
2021/01/08 12:48:40;;;;;;;6.40;4.67;;;2.70;99.90;;;;;;5056353;28;20444;-74
2021/01/08 12:51:07;;;;;;;6.93;4.77;;;2.60;99.90;;;;;;5062754;28;20447;-74
2021/01/08 12:53:35;;;;;;;5.53;4.70;;;2.60;99.90;;;;;;5061369;28;20475;-74
2021/01/08 12:56:03;;;;;;;7.83;4.30;;;2.70;99.90;;;;;;5064552;28;20461;-73
2021/01/08 12:58:31;;;;;;;5.00;3.77;;;2.70;99.90;;;;;;5060108;28;20881;-75